createdAt,value
2017-10-22T00:01:57.539Z,12.37
2017-10-22T00:04:25.108Z,12.17
2017-10-22T00:06:53.576Z,12.15
2017-10-22T00:09:21.147Z,12.09
2017-10-22T00:11:49.483Z,12.10
2017-10-22T00:14:17.089Z,12.24
2017-10-22T00:16:46.397Z,12.38
2017-10-22T00:19:14.323Z,12.29
2017-10-22T00:21:41.884Z,12.31
2017-10-22T00:24:09.431Z,12.23
2017-10-22T00:26:37.038Z,12.16
2017-10-22T00:29:04.579Z,12.10
2017-10-22T00:31:32.921Z,12.11
2017-10-22T00:34:00.498Z,12.14
2017-10-22T00:36:28.102Z,12.05
2017-10-22T00:38:55.692Z,12.18
2017-10-22T00:41:23.237Z,12.05
2017-10-22T00:43:50.889Z,12.03
2017-10-22T00:46:18.550Z,12.17
2017-10-22T00:48:46.516Z,12.25
2017-10-22T00:51:14.356Z,12.10
2017-10-22T00:53:42.560Z,12.18
2017-10-22T00:56:10.156Z,12.24
2017-10-22T00:58:37.693Z,12.18
2017-10-22T01:01:05.996Z,12.20
2017-10-22T01:03:33.524Z,12.40
2017-10-22T01:06:01.090Z,12.30
2017-10-22T01:08:28.640Z,12.41
2017-10-22T01:10:56.185Z,12.35
2017-10-22T01:13:23.717Z,12.26
2017-10-22T01:15:51.248Z,12.34
2017-10-22T01:18:18.820Z,12.29
2017-10-22T01:20:46.883Z,12.32
2017-10-22T01:23:15.394Z,12.48
2017-10-22T01:25:42.997Z,12.37
2017-10-22T01:28:11.373Z,12.37
2017-10-22T01:30:38.909Z,12.27
2017-10-22T01:33:06.498Z,12.30
2017-10-22T01:35:34.152Z,12.46
2017-10-22T01:38:01.711Z,12.47
2017-10-22T01:40:29.284Z,12.43
2017-10-22T01:42:56.819Z,12.44
2017-10-22T01:45:24.367Z,12.44
2017-10-22T01:47:51.948Z,12.40
2017-10-22T01:50:20.412Z,12.46
2017-10-22T01:52:47.961Z,12.38
2017-10-22T01:55:16.427Z,12.33
2017-10-22T01:57:45.732Z,12.27
2017-10-22T02:00:13.309Z,12.22
2017-10-22T02:02:40.847Z,12.16
2017-10-22T02:05:09.389Z,12.15
2017-10-22T02:07:36.965Z,12.13
2017-10-22T02:10:04.544Z,12.10
2017-10-22T02:12:32.096Z,12.10
2017-10-22T02:15:00.548Z,12.14
2017-10-22T02:17:28.084Z,12.10
2017-10-22T02:19:55.624Z,12.09
2017-10-22T02:22:23.235Z,12.12
2017-10-22T02:24:50.781Z,12.20
2017-10-22T02:27:18.639Z,12.17
2017-10-22T02:29:46.917Z,12.15
2017-10-22T02:32:15.424Z,12.36
2017-10-22T02:34:42.971Z,12.28
2017-10-22T02:37:11.314Z,12.24
2017-10-22T02:39:38.849Z,12.21
2017-10-22T02:42:07.185Z,12.24
2017-10-22T02:44:34.725Z,12.24
2017-10-22T02:47:03.242Z,12.37
2017-10-22T02:49:30.805Z,12.31
2017-10-22T02:51:59.242Z,12.26
2017-10-22T02:54:27.562Z,12.35
2017-10-22T02:56:55.808Z,12.35
2017-10-22T02:59:24.116Z,12.31
2017-10-22T03:01:52.716Z,12.30
2017-10-22T03:04:20.365Z,12.31
2017-10-22T03:06:47.941Z,12.36
2017-10-22T03:09:17.273Z,12.40
2017-10-22T03:11:45.821Z,12.44
2017-10-22T03:14:14.290Z,12.48
2017-10-22T03:16:42.672Z,12.45
2017-10-22T03:19:10.215Z,12.46
2017-10-22T03:21:37.755Z,12.44
2017-10-22T03:24:06.123Z,12.57
2017-10-22T03:26:33.669Z,12.53
2017-10-22T03:29:02.121Z,12.52
2017-10-22T03:31:30.093Z,12.52
2017-10-22T03:33:57.629Z,12.60
2017-10-22T03:36:25.985Z,12.56
2017-10-22T03:38:53.585Z,12.55
2017-10-22T03:41:21.121Z,12.56
2017-10-22T03:43:48.668Z,12.48
2017-10-22T03:46:17.189Z,12.54
2017-10-22T03:48:44.869Z,12.63
2017-10-22T03:51:13.340Z,12.65
2017-10-22T03:53:40.887Z,12.63
2017-10-22T03:56:08.457Z,12.61
2017-10-22T03:58:36.780Z,12.56
2017-10-22T04:01:05.015Z,12.61
2017-10-22T04:03:32.558Z,12.62
2017-10-22T04:06:00.906Z,12.59
2017-10-22T04:08:28.448Z,12.59
2017-10-22T04:10:56.021Z,12.59
2017-10-22T04:13:23.560Z,12.55
2017-10-22T04:15:51.135Z,12.58
2017-10-22T04:18:18.677Z,12.63
2017-10-22T04:20:47.034Z,12.56
2017-10-22T04:23:15.417Z,12.54
2017-10-22T04:25:43.041Z,12.60
2017-10-22T04:28:10.588Z,12.56
2017-10-22T04:30:38.193Z,12.52
2017-10-22T04:33:05.732Z,12.52
2017-10-22T04:35:33.264Z,12.56
2017-10-22T04:38:01.168Z,12.55
2017-10-22T04:40:28.741Z,12.55
2017-10-22T04:42:56.282Z,12.60
2017-10-22T04:45:23.854Z,12.52
2017-10-22T04:47:51.392Z,12.48
2017-10-22T04:50:19.687Z,12.39
2017-10-22T04:52:47.261Z,12.38
2017-10-22T04:55:14.801Z,12.48
2017-10-22T04:57:42.381Z,12.38
2017-10-22T05:00:09.923Z,12.32
2017-10-22T05:02:37.492Z,12.38
2017-10-22T05:05:05.030Z,12.30
2017-10-22T05:07:33.544Z,12.32
2017-10-22T05:10:01.392Z,12.31
2017-10-22T05:12:28.973Z,12.31
2017-10-22T05:14:57.315Z,12.24
2017-10-22T05:17:24.909Z,12.24
2017-10-22T05:19:52.459Z,12.28
2017-10-22T05:22:20.037Z,12.34
2017-10-22T05:24:48.486Z,12.18
2017-10-22T05:27:16.050Z,12.11
2017-10-22T05:29:43.593Z,12.10
2017-10-22T05:32:11.970Z,12.12
2017-10-22T05:34:40.279Z,12.06
2017-10-22T05:37:07.813Z,12.04
2017-10-22T05:39:36.195Z,12.06
2017-10-22T05:42:05.553Z,12.05
2017-10-22T05:44:33.990Z,12.03
2017-10-22T05:47:01.569Z,12.05
2017-10-22T05:49:29.196Z,12.08
2017-10-22T05:51:56.731Z,12.21
2017-10-22T05:54:24.282Z,12.20
2017-10-22T05:56:52.424Z,12.14
2017-10-22T05:59:19.993Z,12.09
2017-10-22T06:01:47.553Z,12.01
2017-10-22T06:04:15.099Z,11.96
2017-10-22T06:06:42.630Z,11.98
2017-10-22T06:09:10.257Z,11.98
2017-10-22T06:11:37.899Z,11.88
2017-10-22T06:14:05.449Z,11.88
2017-10-22T06:16:34.085Z,11.88
2017-10-22T06:19:01.633Z,11.89
2017-10-22T06:21:29.469Z,11.89
2017-10-22T06:23:57.899Z,11.87
2017-10-22T06:26:25.520Z,11.93
2017-10-22T06:28:55.439Z,11.90
2017-10-22T06:31:23.061Z,11.99
2017-10-22T06:33:50.643Z,11.93
2017-10-22T06:36:18.177Z,11.91
2017-10-22T06:38:45.708Z,11.89
2017-10-22T06:41:13.336Z,12.10
2017-10-22T06:43:41.744Z,12.04
2017-10-22T06:46:10.220Z,12.07
2017-10-22T06:48:37.859Z,12.08
2017-10-22T06:51:05.425Z,12.00
2017-10-22T06:53:33.430Z,11.98
2017-10-22T06:56:00.996Z,12.02
2017-10-22T06:58:28.599Z,12.06
2017-10-22T07:00:56.964Z,12.16
2017-10-22T07:03:24.505Z,12.22
2017-10-22T07:05:52.275Z,12.19
2017-10-22T07:08:19.808Z,12.25
2017-10-22T07:10:47.369Z,12.22
2017-10-22T07:13:14.900Z,12.17
2017-10-22T07:15:42.487Z,12.06
2017-10-22T07:18:10.100Z,12.07
2017-10-22T07:20:38.469Z,12.05
2017-10-22T07:23:06.061Z,12.19
2017-10-22T07:25:34.505Z,12.21
2017-10-22T07:28:02.312Z,12.26
2017-10-22T07:30:30.609Z,12.32
2017-10-22T07:32:58.176Z,12.35
2017-10-22T07:35:25.700Z,12.35
2017-10-22T07:37:53.269Z,12.45
2017-10-22T07:40:21.549Z,12.37
2017-10-22T07:42:49.102Z,12.21
2017-10-22T07:45:16.639Z,12.40
2017-10-22T07:47:44.178Z,12.52
2017-10-22T07:50:12.537Z,12.41
2017-10-22T07:52:42.486Z,12.48
2017-10-22T07:55:10.925Z,12.55
2017-10-22T07:57:38.501Z,12.60
2017-10-22T08:00:06.266Z,12.56
2017-10-22T08:02:34.528Z,12.65
2017-10-22T08:05:02.265Z,12.58
2017-10-22T08:07:29.807Z,12.60
2017-10-22T08:09:59.914Z,12.69
2017-10-22T08:12:27.925Z,12.70
2017-10-22T08:14:55.460Z,12.68
2017-10-22T08:17:23.028Z,12.71
2017-10-22T08:19:50.690Z,12.61
2017-10-22T08:22:18.270Z,12.66
2017-10-22T08:24:45.813Z,12.65
2017-10-22T08:27:13.481Z,12.75
2017-10-22T08:29:42.175Z,12.75
2017-10-22T08:32:09.798Z,12.83
2017-10-22T08:34:37.341Z,12.85
2017-10-22T08:37:06.392Z,13.01
2017-10-22T08:39:34.780Z,12.94
2017-10-22T08:42:02.400Z,12.97
2017-10-22T08:44:30.709Z,12.97
2017-10-22T08:46:59.085Z,12.82
2017-10-22T08:49:26.640Z,12.96
2017-10-22T08:51:54.234Z,12.91
2017-10-22T08:54:21.773Z,12.91
2017-10-22T08:56:49.311Z,12.99
2017-10-22T08:59:16.849Z,12.93
2017-10-22T09:01:44.449Z,13.00
2017-10-22T09:04:11.972Z,12.91
2017-10-22T09:06:39.569Z,12.80
2017-10-22T09:09:07.142Z,12.85
2017-10-22T09:11:34.788Z,12.91
2017-10-22T09:14:03.223Z,12.90
2017-10-22T09:16:31.652Z,13.08
2017-10-22T09:18:59.186Z,13.11
2017-10-22T09:21:27.634Z,13.27
2017-10-22T09:23:55.987Z,13.27
2017-10-22T09:26:23.697Z,13.31
2017-10-22T09:28:51.272Z,13.42
2017-10-22T09:31:18.962Z,13.46
2017-10-22T09:33:47.644Z,13.55
2017-10-22T09:36:16.039Z,13.48
2017-10-22T09:38:43.619Z,13.44
2017-10-22T09:41:11.148Z,13.24
2017-10-22T09:43:38.682Z,13.26
2017-10-22T09:46:06.209Z,13.41
2017-10-22T09:48:34.548Z,13.40
2017-10-22T09:51:02.392Z,13.34
2017-10-22T09:53:29.971Z,13.45
2017-10-22T09:55:57.500Z,13.54
2017-10-22T09:58:25.047Z,13.77
2017-10-22T10:00:53.482Z,14.08
2017-10-22T10:03:21.041Z,14.16
2017-10-22T10:05:48.567Z,14.01
2017-10-22T10:08:16.143Z,14.11
2017-10-22T10:10:43.676Z,14.31
2017-10-22T10:13:11.220Z,14.46
2017-10-22T10:15:38.843Z,14.68
2017-10-22T10:18:06.422Z,14.75
2017-10-22T10:20:33.961Z,14.90
2017-10-22T10:23:01.509Z,14.84
2017-10-22T10:25:29.036Z,14.60
2017-10-22T10:27:57.485Z,14.30
2017-10-22T10:30:25.203Z,14.26
2017-10-22T10:32:53.052Z,14.34
2017-10-22T10:35:20.622Z,14.35
2017-10-22T10:37:49.256Z,14.43
2017-10-22T10:40:17.363Z,14.57
2017-10-22T10:42:44.976Z,14.87
2017-10-22T10:45:12.520Z,14.82
2017-10-22T10:47:40.096Z,14.84
2017-10-22T10:50:07.637Z,14.95
2017-10-22T10:52:35.208Z,15.08
2017-10-22T10:55:02.754Z,15.51
2017-10-22T10:57:31.195Z,15.42
2017-10-22T10:59:58.773Z,15.62
2017-10-22T11:02:26.996Z,15.81
2017-10-22T11:04:56.495Z,15.82
2017-10-22T11:07:24.025Z,15.59
2017-10-22T11:09:51.551Z,15.79
2017-10-22T11:12:19.800Z,15.75
2017-10-22T11:14:47.357Z,15.98
2017-10-22T11:17:15.009Z,15.98
2017-10-22T11:19:43.387Z,16.27
2017-10-22T11:22:10.929Z,16.39
2017-10-22T11:24:38.458Z,16.17
2017-10-22T11:27:05.988Z,15.80
2017-10-22T11:29:33.654Z,15.57
2017-10-22T11:32:01.184Z,15.30
2017-10-22T11:34:28.820Z,15.17
2017-10-22T11:36:56.356Z,14.96
2017-10-22T11:39:23.947Z,14.83
2017-10-22T11:41:51.543Z,14.77
2017-10-22T11:44:19.073Z,14.78
2017-10-22T11:46:46.665Z,14.88
2017-10-22T11:49:14.231Z,14.69
2017-10-22T11:51:41.769Z,14.85
2017-10-22T11:54:09.299Z,14.98
2017-10-22T11:56:36.831Z,15.19
2017-10-22T11:59:04.400Z,15.53
2017-10-22T12:01:32.209Z,15.87
2017-10-22T12:03:59.748Z,16.00
2017-10-22T12:06:29.227Z,15.91
2017-10-22T12:08:57.536Z,15.88
2017-10-22T12:11:25.968Z,15.78
2017-10-22T12:13:53.563Z,15.81
2017-10-22T12:16:21.088Z,15.67
2017-10-22T12:18:48.673Z,15.61
2017-10-22T12:21:16.206Z,15.45
2017-10-22T12:23:43.729Z,15.31
2017-10-22T12:26:11.266Z,15.33
2017-10-22T12:28:38.801Z,15.24
2017-10-22T12:31:06.444Z,15.19
2017-10-22T12:33:33.975Z,15.27
2017-10-22T12:36:01.562Z,15.38
2017-10-22T12:38:29.105Z,15.46
2017-10-22T12:40:56.667Z,15.45
2017-10-22T12:43:25.024Z,15.53
2017-10-22T12:45:52.559Z,15.80
2017-10-22T12:48:21.032Z,15.71
2017-10-22T12:50:48.571Z,15.48
2017-10-22T12:53:16.129Z,15.13
2017-10-22T12:55:43.696Z,15.01
2017-10-22T12:58:11.238Z,14.68
2017-10-22T13:00:38.770Z,14.67
2017-10-22T13:03:06.367Z,14.41
2017-10-22T13:05:33.977Z,14.51
2017-10-22T13:08:01.566Z,14.41
2017-10-22T13:10:29.102Z,14.32
2017-10-22T13:12:56.640Z,14.57
2017-10-22T13:15:24.347Z,14.64
2017-10-22T13:17:51.885Z,14.62
2017-10-22T13:20:19.422Z,14.66
2017-10-22T13:22:47.042Z,14.62
2017-10-22T13:25:14.571Z,14.58
2017-10-22T13:27:42.692Z,14.64
2017-10-22T13:30:10.221Z,14.57
2017-10-22T13:32:37.806Z,14.41
2017-10-22T13:35:05.366Z,14.22
2017-10-22T13:37:32.894Z,14.19
2017-10-22T13:40:00.571Z,14.24
2017-10-22T13:42:28.997Z,14.27
2017-10-22T13:44:57.906Z,14.30
2017-10-22T13:47:26.253Z,14.26
2017-10-22T13:49:54.578Z,14.23
2017-10-22T13:52:22.112Z,14.15
2017-10-22T13:54:49.642Z,14.09
2017-10-22T13:57:17.220Z,14.01
2017-10-22T13:59:44.754Z,14.01
2017-10-22T14:02:12.815Z,13.89
2017-10-22T14:04:40.392Z,13.69
2017-10-22T14:07:08.184Z,13.67
2017-10-22T14:09:35.929Z,13.65
2017-10-22T14:12:03.508Z,13.62
2017-10-22T14:14:31.972Z,13.60
2017-10-22T14:16:59.500Z,13.61
2017-10-22T14:19:27.030Z,13.52
2017-10-22T14:21:54.564Z,13.56
2017-10-22T14:24:23.025Z,13.50
2017-10-22T14:26:51.391Z,13.51
2017-10-22T14:29:19.892Z,13.45
2017-10-22T14:31:47.573Z,13.42
2017-10-22T14:34:15.812Z,13.34
2017-10-22T14:36:43.485Z,13.33
2017-10-22T14:39:11.545Z,13.32
2017-10-22T14:41:39.081Z,13.26
2017-10-22T14:44:06.652Z,13.35
2017-10-22T14:46:34.236Z,13.20
2017-10-22T14:49:02.551Z,13.18
2017-10-22T14:51:30.285Z,13.21
2017-10-22T14:53:58.679Z,13.20
2017-10-22T14:56:26.635Z,13.09
2017-10-22T14:58:54.984Z,12.93
2017-10-22T15:01:22.512Z,12.91
2017-10-22T15:03:50.638Z,12.91
2017-10-22T15:06:18.177Z,12.88
2017-10-22T15:08:45.708Z,12.92
2017-10-22T15:11:13.240Z,12.76
2017-10-22T15:13:40.785Z,12.76
2017-10-22T15:16:08.321Z,12.75
2017-10-22T15:18:35.885Z,12.74
2017-10-22T15:21:03.412Z,12.83
2017-10-22T15:23:30.941Z,12.87
2017-10-22T15:25:58.504Z,12.75
2017-10-22T15:28:26.043Z,12.70
2017-10-22T15:30:53.621Z,12.76
2017-10-22T15:33:21.151Z,12.66
2017-10-22T15:35:48.698Z,12.64
2017-10-22T15:38:16.238Z,12.69
2017-10-22T15:40:43.774Z,12.62
2017-10-22T15:43:11.864Z,12.73
2017-10-22T15:45:39.391Z,12.59
2017-10-22T15:48:06.926Z,12.56
2017-10-22T15:50:34.472Z,12.60
2017-10-22T15:53:03.085Z,12.58
2017-10-22T15:55:30.625Z,12.52
2017-10-22T15:57:58.153Z,12.48
2017-10-22T16:00:26.680Z,12.50
2017-10-22T16:02:54.448Z,12.43
2017-10-22T16:05:22.026Z,12.37
2017-10-22T16:07:50.334Z,12.27
2017-10-22T16:10:18.957Z,12.24
2017-10-22T16:12:47.195Z,12.32
2017-10-22T16:15:16.357Z,12.30
2017-10-22T16:17:45.373Z,12.21
2017-10-22T16:20:13.778Z,12.17
2017-10-22T16:22:41.314Z,12.20
2017-10-22T16:25:09.785Z,12.25
2017-10-22T16:27:37.318Z,12.20
2017-10-22T16:30:05.665Z,12.12
2017-10-22T16:32:33.963Z,12.24
2017-10-22T16:35:01.538Z,12.15
2017-10-22T16:37:30.029Z,12.10
2017-10-22T16:39:59.394Z,12.04
2017-10-22T16:42:27.882Z,12.05
2017-10-22T16:44:56.211Z,12.05
2017-10-22T16:47:24.663Z,12.03
2017-10-22T16:49:53.035Z,11.97
2017-10-22T16:52:21.576Z,11.98
2017-10-22T16:54:49.111Z,11.97
2017-10-22T16:57:17.592Z,11.90
2017-10-22T16:59:45.896Z,11.86
2017-10-22T17:02:13.430Z,11.77
2017-10-22T17:04:40.962Z,11.75
2017-10-22T17:07:08.542Z,11.84
2017-10-22T17:09:36.072Z,11.69
2017-10-22T17:12:04.435Z,11.72
2017-10-22T17:14:32.475Z,11.66
2017-10-22T17:17:00.040Z,11.65
2017-10-22T17:19:27.604Z,11.50
2017-10-22T17:21:55.138Z,11.55
2017-10-22T17:24:22.704Z,11.51
2017-10-22T17:26:50.263Z,11.49
2017-10-22T17:29:18.013Z,11.46
2017-10-22T17:31:45.932Z,11.49
2017-10-22T17:34:13.483Z,11.45
2017-10-22T17:36:41.013Z,11.38
2017-10-22T17:39:08.552Z,11.36
2017-10-22T17:41:36.093Z,11.26
2017-10-22T17:44:06.767Z,11.19
2017-10-22T17:46:34.294Z,11.17
2017-10-22T17:49:02.938Z,11.10
2017-10-22T17:51:30.479Z,11.02
2017-10-22T17:53:58.017Z,10.95
2017-10-22T17:56:25.692Z,10.93
2017-10-22T17:58:53.316Z,10.92
2017-10-22T18:01:20.870Z,10.91
2017-10-22T18:03:48.400Z,10.96
2017-10-22T18:06:15.937Z,10.85
2017-10-22T18:11:09.805Z,10.89
2017-10-22T18:13:37.337Z,10.90
2017-10-22T18:16:04.906Z,10.91
2017-10-22T18:18:32.436Z,10.85
2017-10-22T18:21:00.968Z,10.79
2017-10-22T18:23:28.507Z,10.71
2017-10-22T18:25:56.041Z,10.83
2017-10-22T18:28:23.581Z,10.75
2017-10-22T18:30:51.160Z,10.78
2017-10-22T18:33:18.695Z,10.77
2017-10-22T18:35:46.225Z,10.77
2017-10-22T18:38:13.773Z,10.82
2017-10-22T18:40:41.316Z,10.79
2017-10-22T18:43:08.852Z,10.82
2017-10-22T18:45:36.387Z,10.89
2017-10-22T18:48:03.957Z,10.91
2017-10-22T18:50:31.597Z,11.02
2017-10-22T18:53:00.293Z,10.99
2017-10-22T18:55:28.755Z,11.04
2017-10-22T18:57:57.153Z,11.19
2017-10-22T19:00:24.717Z,11.10
2017-10-22T19:02:52.249Z,11.16
2017-10-22T19:05:20.595Z,11.15
2017-10-22T19:07:48.920Z,11.24
2017-10-22T19:10:17.518Z,11.13
2017-10-22T19:12:45.981Z,11.20
2017-10-22T19:15:14.306Z,11.25
2017-10-22T19:17:41.847Z,11.22
2017-10-22T19:20:09.427Z,11.17
2017-10-22T19:22:37.048Z,11.25
2017-10-22T19:25:04.624Z,11.25
2017-10-22T19:27:32.164Z,11.11
2017-10-22T19:30:00.273Z,11.13
2017-10-22T19:32:27.813Z,11.15
2017-10-22T19:34:55.350Z,11.06
2017-10-22T19:37:22.892Z,11.10
2017-10-22T19:39:51.494Z,11.16
2017-10-22T19:42:19.941Z,11.21
2017-10-22T19:44:47.469Z,11.23
2017-10-22T19:47:15.004Z,11.11
2017-10-22T19:49:42.555Z,11.16
2017-10-22T19:52:10.088Z,11.25
2017-10-22T19:54:37.659Z,11.17
2017-10-22T19:57:05.953Z,11.03
2017-10-22T19:59:35.321Z,11.09
2017-10-22T20:02:02.864Z,11.17
2017-10-22T20:04:30.411Z,11.09
2017-10-22T20:06:58.679Z,11.16
2017-10-22T20:09:26.221Z,11.15
2017-10-22T20:11:54.446Z,11.15
2017-10-22T20:14:21.984Z,11.21
2017-10-22T20:16:49.520Z,11.09
2017-10-22T20:19:17.090Z,11.10
2017-10-22T20:24:24.095Z,11.17
2017-10-22T20:27:00.774Z,11.23
2017-10-22T20:29:36.219Z,11.17
2017-10-22T20:32:03.860Z,11.17
2017-10-22T20:34:32.240Z,11.20
2017-10-22T20:37:00.921Z,11.13
2017-10-22T20:39:28.673Z,11.04
2017-10-22T20:41:56.252Z,11.11
2017-10-22T20:44:23.803Z,11.09
2017-10-22T20:46:51.353Z,11.10
2017-10-22T20:49:18.913Z,11.11
2017-10-22T20:51:46.480Z,11.19
2017-10-22T20:54:14.032Z,11.17
2017-10-22T20:56:41.603Z,11.17
2017-10-22T20:59:10.278Z,11.09
2017-10-22T21:01:37.819Z,11.09
2017-10-22T21:04:05.468Z,11.12
2017-10-22T21:06:33.007Z,11.06
2017-10-22T21:09:01.712Z,11.14
2017-10-22T21:11:29.595Z,11.09
2017-10-22T21:13:57.128Z,11.06
2017-10-22T21:16:24.653Z,11.02
2017-10-22T21:18:52.207Z,10.94
2017-10-22T21:21:19.971Z,10.92
2017-10-22T21:23:48.793Z,11.14
2017-10-22T21:26:16.327Z,11.11
2017-10-22T21:28:44.664Z,11.00
2017-10-22T21:31:12.257Z,11.02
2017-10-22T21:33:39.839Z,11.05
2017-10-22T21:36:08.228Z,10.99
2017-10-22T21:38:35.756Z,11.03
2017-10-22T21:41:03.297Z,10.95
2017-10-22T21:43:31.614Z,10.91
2017-10-22T21:45:59.158Z,10.92
2017-10-22T21:48:26.688Z,11.00
2017-10-22T21:50:54.272Z,10.96
2017-10-22T21:53:21.834Z,10.89
2017-10-22T21:55:49.363Z,10.87
2017-10-22T21:58:17.038Z,10.84
2017-10-22T22:00:44.719Z,10.87
2017-10-22T22:03:12.253Z,10.94
2017-10-22T22:05:39.786Z,10.88
2017-10-22T22:08:07.318Z,10.84
2017-10-22T22:10:34.849Z,10.92
2017-10-22T22:13:02.380Z,10.89
2017-10-22T22:15:29.909Z,10.93
2017-10-22T22:17:57.441Z,10.91
2017-10-22T22:20:26.014Z,11.00
2017-10-22T22:22:53.551Z,11.01
2017-10-22T22:25:21.073Z,10.92
2017-10-22T22:27:48.604Z,10.98
2017-10-22T22:30:16.133Z,10.90
2017-10-22T22:32:43.693Z,10.92
2017-10-22T22:35:11.225Z,10.91
2017-10-22T22:37:38.796Z,10.95
2017-10-22T22:40:06.327Z,10.98
2017-10-22T22:42:33.860Z,10.93
2017-10-22T22:45:01.392Z,10.97
2017-10-22T22:47:28.936Z,10.93
2017-10-22T22:49:56.522Z,10.92
2017-10-22T22:52:24.048Z,10.88
2017-10-22T22:54:51.589Z,10.86
2017-10-22T22:57:19.141Z,10.99
2017-10-22T22:59:46.684Z,10.91
2017-10-22T23:02:14.309Z,10.78
2017-10-22T23:04:41.838Z,10.89
2017-10-22T23:07:09.389Z,10.80
2017-10-22T23:09:37.529Z,10.83
2017-10-22T23:12:05.609Z,10.83
2017-10-22T23:14:33.136Z,10.83
2017-10-22T23:17:00.669Z,10.83
2017-10-22T23:19:28.198Z,10.85
2017-10-22T23:21:56.537Z,10.74
2017-10-22T23:24:24.073Z,10.72
2017-10-22T23:26:52.396Z,10.79
2017-10-22T23:29:19.934Z,10.84
2017-10-22T23:31:47.473Z,10.71
2017-10-22T23:34:15.000Z,10.74
2017-10-22T23:36:43.316Z,10.70
2017-10-22T23:39:11.649Z,10.69
2017-10-22T23:41:39.188Z,10.83
2017-10-22T23:44:07.721Z,10.69
2017-10-22T23:46:35.853Z,10.73
2017-10-22T23:49:04.163Z,10.69
2017-10-22T23:51:31.686Z,10.63
2017-10-22T23:54:00.122Z,10.61
2017-10-22T23:56:27.657Z,10.62
2017-10-22T23:58:56.138Z,10.74
